createdAt,value
2023-02-15T00:38:34.334Z,63.75
2023-02-15T00:43:47.630Z,64.06
2023-02-15T00:53:45.798Z,64.27
2023-02-15T01:18:14.222Z,64.40
2023-02-15T01:19:37.373Z,64.33
2023-02-15T01:21:00.158Z,65.04
2023-02-15T01:24:43.955Z,64.90
2023-02-15T01:28:10.058Z,65.05
2023-02-15T01:29:49.862Z,64.95
2023-02-15T01:31:13.544Z,65.18
2023-02-15T01:38:22.468Z,64.92
2023-02-15T01:43:22.472Z,65.01
2023-02-15T01:48:33.368Z,65.10
2023-02-15T01:55:38.433Z,65.33
2023-02-15T02:00:51.322Z,65.41
2023-02-15T02:03:31.350Z,65.37
2023-02-15T02:21:29.761Z,65.61
2023-02-15T02:23:56.570Z,65.97
2023-02-15T02:25:37.909Z,65.72
2023-02-15T02:27:25.208Z,65.86
2023-02-15T02:29:45.785Z,66.09
2023-02-15T02:34:29.886Z,65.75
2023-02-15T02:42:55.685Z,65.91
2023-02-15T02:44:46.839Z,65.89
2023-02-15T02:46:36.933Z,66.21
2023-02-15T02:49:26.916Z,66.12
2023-02-15T02:50:52.840Z,66.10
2023-02-15T02:58:17.569Z,66.11
2023-02-15T02:59:49.050Z,66.29
2023-02-15T03:01:18.031Z,66.48
2023-02-15T03:03:09.005Z,66.46
2023-02-15T03:04:40.953Z,66.57
2023-02-15T03:06:25.122Z,66.77
2023-02-15T03:07:53.519Z,66.67
2023-02-15T03:10:03.734Z,66.74
2023-02-15T03:12:13.615Z,66.92
2023-02-15T03:13:47.514Z,66.53
2023-02-15T03:15:57.188Z,66.67
2023-02-15T03:17:31.059Z,66.55
2023-02-15T03:19:04.047Z,66.64
2023-02-15T03:20:34.411Z,66.71
2023-02-15T03:22:10.589Z,66.81
2023-02-15T03:24:48.327Z,66.86
2023-02-15T03:36:18.493Z,66.85
2023-02-15T03:38:14.347Z,67.03
2023-02-15T03:40:38.466Z,67.01
2023-02-15T03:42:46.925Z,67.04
2023-02-15T03:44:52.063Z,67.01
2023-02-15T03:47:09.806Z,67.00
2023-02-15T03:49:11.851Z,67.01
2023-02-15T03:51:00.645Z,67.17
2023-02-15T03:52:27.470Z,66.94
2023-02-15T03:53:54.470Z,67.42
2023-02-15T03:55:20.364Z,67.35
2023-02-15T03:57:11.218Z,67.41
2023-02-15T03:58:57.846Z,67.41
2023-02-15T04:00:43.427Z,67.62
2023-02-15T04:02:25.869Z,67.38
2023-02-15T04:04:07.021Z,67.36
2023-02-15T04:05:40.311Z,67.45
2023-02-15T04:07:09.700Z,67.24
2023-02-15T04:08:51.899Z,67.36
2023-02-15T04:10:45.372Z,67.39
2023-02-15T04:12:24.309Z,67.30
2023-02-15T04:14:35.157Z,67.46
2023-02-15T04:16:23.230Z,67.60
2023-02-15T04:18:17.319Z,67.40
2023-02-15T04:20:15.230Z,67.45
2023-02-15T04:21:56.944Z,67.72
2023-02-15T04:23:42.232Z,67.57
2023-02-15T04:25:14.397Z,67.60
2023-02-15T04:26:38.856Z,67.52
2023-02-15T04:28:03.825Z,67.69
2023-02-15T04:29:27.096Z,67.71
2023-02-15T04:30:50.018Z,67.84
2023-02-15T04:32:16.121Z,67.68
2023-02-15T04:33:40.392Z,68.04
2023-02-15T04:35:01.988Z,68.03
2023-02-15T04:36:25.796Z,68.02
2023-02-15T04:37:52.044Z,67.86
2023-02-15T04:39:15.433Z,67.96
2023-02-15T04:40:39.165Z,67.96
2023-02-15T04:42:02.118Z,67.90
2023-02-15T04:43:26.084Z,68.16
2023-02-15T04:44:48.260Z,68.15
2023-02-15T04:46:21.403Z,68.17
2023-02-15T04:47:47.852Z,68.03
2023-02-15T04:49:18.335Z,68.27
2023-02-15T04:50:42.344Z,67.99
2023-02-15T04:52:08.054Z,68.17
2023-02-15T04:53:34.187Z,68.35
2023-02-15T04:58:24.415Z,67.81
2023-02-15T05:00:40.177Z,67.90
2023-02-15T05:02:05.824Z,68.09
2023-02-15T05:03:27.629Z,68.24
2023-02-15T05:04:50.560Z,68.24
2023-02-15T05:06:27.289Z,68.21
2023-02-15T05:08:14.202Z,68.13
2023-02-15T05:19:07.355Z,67.97
2023-02-15T05:21:08.302Z,67.89
2023-02-15T05:22:48.241Z,67.95
2023-02-15T05:25:01.150Z,68.09
2023-02-15T05:26:54.829Z,68.23
2023-02-15T05:28:54.100Z,68.44
2023-02-15T05:30:41.369Z,68.34
2023-02-15T05:32:24.744Z,68.35
2023-02-15T05:34:04.004Z,68.56
2023-02-15T05:37:46.387Z,68.59
2023-02-15T05:50:34.026Z,68.28
2023-02-15T05:52:14.670Z,68.45
2023-02-15T05:53:44.288Z,68.73
2023-02-15T05:55:28.281Z,68.86
2023-02-15T05:57:06.054Z,68.32
2023-02-15T05:58:32.985Z,68.65
2023-02-15T06:07:05.980Z,68.22
2023-02-15T06:22:14.453Z,68.24
2023-02-15T06:43:38.418Z,67.90
2023-02-15T06:49:00.819Z,67.85
2023-02-15T06:53:35.507Z,67.92
2023-02-15T07:01:07.075Z,67.53
2023-02-15T07:03:53.892Z,67.38
2023-02-15T07:14:46.497Z,67.20
2023-02-15T07:22:19.097Z,66.79
2023-02-15T07:50:53.412Z,66.00
2023-02-15T07:52:18.934Z,66.19
2023-02-15T07:53:41.635Z,65.95
2023-02-15T07:55:03.976Z,66.08
2023-02-15T07:56:42.273Z,66.02
2023-02-15T07:58:05.204Z,65.78
2023-02-15T07:59:28.453Z,65.68
2023-02-15T08:01:05.262Z,65.63
2023-02-15T08:02:38.281Z,65.70
2023-02-15T08:04:05.909Z,65.69
2023-02-15T08:05:31.630Z,65.69
2023-02-15T08:07:05.517Z,65.50
2023-02-15T08:08:57.648Z,65.48
2023-02-15T08:11:03.791Z,65.51
2023-02-15T08:12:28.903Z,65.46
2023-02-15T08:14:26.051Z,65.37
2023-02-15T08:16:37.454Z,65.31
2023-02-15T08:23:58.562Z,64.33
2023-02-15T08:28:51.864Z,63.78
2023-02-15T08:30:22.194Z,63.17
2023-02-15T08:31:44.997Z,63.08
2023-02-15T08:33:59.808Z,62.66
2023-02-15T08:36:40.808Z,62.39
2023-02-15T08:45:41.595Z,60.69
2023-02-15T09:15:49.113Z,56.26
2023-02-15T09:26:11.943Z,55.23
2023-02-15T09:30:12.816Z,54.60
2023-02-15T09:31:39.499Z,54.29
2023-02-15T09:33:05.270Z,53.51
2023-02-15T09:34:50.255Z,53.51
2023-02-15T09:36:37.580Z,53.16
2023-02-15T09:46:35.857Z,52.48
2023-02-15T09:48:41.903Z,52.28
2023-02-15T09:51:23.678Z,52.22
2023-02-15T09:57:02.029Z,51.79
2023-02-15T09:59:35.423Z,51.55
2023-02-15T10:01:20.241Z,51.75
2023-02-15T10:02:59.102Z,51.37
2023-02-15T10:04:54.818Z,51.06
2023-02-15T10:09:25.123Z,51.03
2023-02-15T10:11:42.826Z,51.09
2023-02-15T10:13:48.679Z,51.11
2023-02-15T10:18:07.538Z,50.91
2023-02-15T10:20:17.972Z,50.89
2023-02-15T10:22:16.322Z,50.76
2023-02-15T10:24:03.555Z,51.02
2023-02-15T10:25:42.371Z,50.76
2023-02-15T10:27:26.058Z,50.86
2023-02-15T10:31:47.793Z,51.00
2023-02-15T10:33:30.896Z,50.94
2023-02-15T10:35:06.563Z,50.93
2023-02-15T10:36:41.711Z,51.00
2023-02-15T10:38:30.448Z,51.09
2023-02-15T10:40:15.724Z,51.47
2023-02-15T10:42:07.616Z,51.39
2023-02-15T10:44:13.042Z,51.29
2023-02-15T10:45:46.643Z,51.69
2023-02-15T10:47:47.533Z,51.52
2023-02-15T10:49:35.902Z,51.86
2023-02-15T10:51:06.192Z,51.84
2023-02-15T10:52:52.634Z,51.95
2023-02-15T10:54:34.735Z,51.93
2023-02-15T10:56:09.065Z,52.00
2023-02-15T11:03:27.794Z,52.69
2023-02-15T11:05:04.761Z,52.87
2023-02-15T11:06:32.888Z,53.14
2023-02-15T11:08:02.472Z,53.12
2023-02-15T11:09:38.449Z,53.00
2023-02-15T11:11:14.343Z,53.10
2023-02-15T11:12:55.628Z,53.17
2023-02-15T11:14:26.599Z,53.25
2023-02-15T11:16:01.682Z,53.30
2023-02-15T11:17:37.730Z,53.64
2023-02-15T11:19:04.709Z,53.54
2023-02-15T11:20:33.690Z,53.46
2023-02-15T11:22:04.888Z,53.59
2023-02-15T11:23:37.193Z,53.66
2023-02-15T11:25:14.985Z,53.92
2023-02-15T11:26:49.723Z,54.06
2023-02-15T11:28:19.942Z,54.14
2023-02-15T11:29:50.070Z,54.12
2023-02-15T11:34:14.742Z,54.13
2023-02-15T11:35:49.658Z,54.41
2023-02-15T11:37:31.850Z,54.31
2023-02-15T11:39:16.768Z,54.52
2023-02-15T11:40:48.487Z,54.72
2023-02-15T11:42:23.255Z,54.94
2023-02-15T11:44:03.584Z,54.85
2023-02-15T11:46:00.755Z,54.79
2023-02-15T11:50:14.452Z,55.42
2023-02-15T11:51:39.194Z,55.59
2023-02-15T11:53:07.218Z,55.48
2023-02-15T11:54:34.481Z,55.51
2023-02-15T11:56:00.620Z,55.58
2023-02-15T11:57:32.481Z,55.65
2023-02-15T11:58:59.555Z,55.82
2023-02-15T12:00:37.140Z,55.81
2023-02-15T12:02:00.899Z,56.17
2023-02-15T12:03:36.680Z,56.06
2023-02-15T12:05:23.217Z,56.25
2023-02-15T12:06:51.418Z,56.43
2023-02-15T12:08:23.946Z,56.45
2023-02-15T12:10:42.302Z,56.55
2023-02-15T12:14:52.569Z,56.58
2023-02-15T12:16:31.975Z,56.62
2023-02-15T12:17:59.897Z,56.33
2023-02-15T12:19:49.542Z,56.37
2023-02-15T12:21:27.511Z,56.55
2023-02-15T12:23:00.004Z,56.46
2023-02-15T12:24:32.853Z,56.49
2023-02-15T12:31:31.948Z,56.81
2023-02-15T12:33:37.026Z,57.08
2023-02-15T12:35:11.602Z,56.92
2023-02-15T12:36:57.849Z,57.11
2023-02-15T12:38:39.916Z,57.21
2023-02-15T12:40:41.488Z,56.94
2023-02-15T12:43:00.149Z,56.76
2023-02-15T12:44:35.949Z,56.98
2023-02-15T12:46:37.990Z,57.04
2023-02-15T12:48:29.282Z,57.01
2023-02-15T12:50:40.080Z,57.10
2023-02-15T12:53:27.662Z,56.94
2023-02-15T12:58:38.902Z,56.78
2023-02-15T13:00:34.711Z,57.01
2023-02-15T13:02:08.298Z,56.95
2023-02-15T13:03:46.896Z,56.94
2023-02-15T13:05:24.752Z,57.01
2023-02-15T13:11:36.525Z,57.11
2023-02-15T13:12:59.433Z,57.23
2023-02-15T13:14:29.730Z,57.21
2023-02-15T13:15:54.727Z,57.22
2023-02-15T13:17:19.334Z,57.50
2023-02-15T13:18:45.493Z,57.54
2023-02-15T13:20:21.287Z,57.48
2023-02-15T13:21:47.503Z,57.45
2023-02-15T13:23:36.342Z,57.45
2023-02-15T13:25:09.613Z,57.30
2023-02-15T13:26:50.936Z,57.26
2023-02-15T13:28:36.621Z,57.41
2023-02-15T13:30:13.896Z,57.11
2023-02-15T13:31:44.004Z,56.91
2023-02-15T13:33:19.698Z,57.04
2023-02-15T13:34:57.997Z,56.90
2023-02-15T13:36:53.028Z,57.04
2023-02-15T13:41:13.349Z,56.93
2023-02-15T13:42:44.694Z,56.92
2023-02-15T13:44:40.957Z,57.05
2023-02-15T13:46:26.728Z,56.97
2023-02-15T13:48:01.531Z,57.14
2023-02-15T13:50:25.073Z,57.23
2023-02-15T13:53:11.590Z,57.20
2023-02-15T13:55:03.990Z,57.26
2023-02-15T13:56:36.198Z,57.32
2023-02-15T13:58:25.696Z,57.30
2023-02-15T14:02:52.866Z,57.26
2023-02-15T14:04:51.316Z,57.55
2023-02-15T14:06:40.305Z,57.67
2023-02-15T14:08:11.645Z,57.62
2023-02-15T14:09:48.165Z,57.63
2023-02-15T14:11:18.595Z,57.42
2023-02-15T14:13:10.101Z,57.86
2023-02-15T14:14:51.841Z,57.85
2023-02-15T14:16:25.850Z,57.68
2023-02-15T14:18:03.481Z,58.00
2023-02-15T14:19:31.594Z,57.92
2023-02-15T14:21:04.659Z,57.69
2023-02-15T14:22:37.802Z,58.12
2023-02-15T14:24:16.434Z,58.00
2023-02-15T14:25:43.873Z,58.05
2023-02-15T14:27:19.118Z,57.84
2023-02-15T14:28:48.187Z,57.97
2023-02-15T14:30:18.506Z,57.97
2023-02-15T14:31:48.023Z,57.91
2023-02-15T14:33:35.209Z,58.01
2023-02-15T14:35:02.105Z,57.99
2023-02-15T14:36:29.188Z,57.61
2023-02-15T14:41:11.673Z,57.96
2023-02-15T14:42:41.369Z,57.99
2023-02-15T14:44:12.135Z,57.97
2023-02-15T14:45:48.334Z,58.01
2023-02-15T14:47:33.202Z,58.06
2023-02-15T14:50:47.159Z,58.05
2023-02-15T14:52:39.880Z,58.20
2023-02-15T15:09:03.292Z,58.79
2023-02-15T15:10:55.161Z,58.63
2023-02-15T15:12:44.142Z,58.73
2023-02-15T15:14:11.611Z,58.70
2023-02-15T15:15:47.583Z,59.04
2023-02-15T15:17:16.813Z,58.84
2023-02-15T15:18:49.438Z,58.97
2023-02-15T15:23:57.169Z,58.89
2023-02-15T15:41:47.691Z,59.57
2023-02-15T15:44:12.531Z,59.57
2023-02-15T15:47:24.830Z,59.66
2023-02-15T16:51:16.967Z,62.68
2023-02-15T16:59:23.407Z,62.91
2023-02-15T17:06:42.369Z,63.05
2023-02-15T17:08:17.176Z,63.01
2023-02-15T17:09:52.551Z,63.25
2023-02-15T17:11:22.731Z,63.37
2023-02-15T17:13:02.599Z,63.29
2023-02-15T17:14:34.699Z,63.22
2023-02-15T17:16:34.439Z,63.18
2023-02-15T17:18:01.269Z,63.03
2023-02-15T17:19:27.344Z,63.20
2023-02-15T17:20:52.653Z,63.32
2023-02-15T17:22:35.246Z,63.26
2023-02-15T17:24:03.865Z,63.18
2023-02-15T17:25:43.732Z,63.23
2023-02-15T17:27:19.107Z,63.29
2023-02-15T17:28:51.748Z,63.28
2023-02-15T17:30:19.199Z,63.25
2023-02-15T17:31:53.395Z,63.21
2023-02-15T17:33:30.250Z,63.17
2023-02-15T17:35:18.628Z,63.22
2023-02-15T17:37:13.639Z,63.14
2023-02-15T17:40:01.059Z,63.35
2023-02-15T17:42:28.214Z,63.11
2023-02-15T17:44:03.238Z,63.26
2023-02-15T17:45:40.253Z,63.50
2023-02-15T17:47:09.482Z,63.39
2023-02-15T17:48:50.958Z,63.50
2023-02-15T17:50:33.005Z,63.57
2023-02-15T17:52:23.978Z,63.44
2023-02-15T17:54:58.198Z,63.50
2023-02-15T17:56:51.621Z,63.49
2023-02-15T17:58:56.416Z,63.58
2023-02-15T18:00:44.964Z,63.55
2023-02-15T18:02:34.152Z,63.45
2023-02-15T18:07:37.863Z,63.37
2023-02-15T18:09:20.547Z,63.32
2023-02-15T18:11:00.634Z,63.52
2023-02-15T18:12:31.578Z,63.51
2023-02-15T18:14:10.956Z,63.56
2023-02-15T18:16:24.660Z,63.61
2023-02-15T18:17:48.074Z,63.53
2023-02-15T18:19:31.024Z,63.48
2023-02-15T18:21:15.665Z,63.47
2023-02-15T18:22:41.392Z,63.43
2023-02-15T18:24:21.689Z,63.82
2023-02-15T18:26:32.793Z,63.63
2023-02-15T18:28:20.308Z,63.84
2023-02-15T18:33:00.474Z,63.73
2023-02-15T18:34:33.120Z,63.96
2023-02-15T18:36:02.832Z,63.99
2023-02-15T18:37:30.473Z,63.94
2023-02-15T18:39:07.776Z,64.00
2023-02-15T18:41:13.213Z,63.86
2023-02-15T18:45:56.381Z,63.93
2023-02-15T18:46:17.933Z,64.27
2023-02-15T18:49:52.795Z,63.95
2023-02-15T18:52:18.646Z,63.87
2023-02-15T19:00:37.725Z,63.87
2023-02-15T19:04:32.910Z,64.06
2023-02-15T19:05:58.558Z,63.94
2023-02-15T19:07:40.218Z,64.19
2023-02-15T19:09:21.832Z,64.26
2023-02-15T19:11:23.502Z,64.05
2023-02-15T19:13:20.233Z,64.09
2023-02-15T19:14:48.896Z,64.13
2023-02-15T19:16:27.452Z,64.07
2023-02-15T19:18:00.673Z,64.17
2023-02-15T19:19:31.346Z,64.09
2023-02-15T19:21:00.490Z,64.22
2023-02-15T19:22:29.885Z,64.15
2023-02-15T19:24:25.372Z,64.06
2023-02-15T19:25:56.626Z,64.10
2023-02-15T19:27:29.453Z,64.02
2023-02-15T19:31:50.320Z,64.15
2023-02-15T19:33:49.224Z,64.16
2023-02-15T19:35:28.892Z,64.18
2023-02-15T19:37:36.593Z,64.16
2023-02-15T19:41:18.028Z,64.10
2023-02-15T19:42:08.997Z,64.06
2023-02-15T19:43:44.734Z,64.18
2023-02-15T19:47:07.672Z,64.30
2023-02-15T19:48:35.926Z,64.41
2023-02-15T19:50:32.898Z,64.56
2023-02-15T19:52:20.512Z,64.35
2023-02-15T19:53:47.500Z,64.55
2023-02-15T19:56:13.554Z,64.33
2023-02-15T19:57:41.448Z,64.35
2023-02-15T20:08:37.414Z,64.58
2023-02-15T20:10:06.575Z,64.69
2023-02-15T20:11:41.236Z,64.83
2023-02-15T20:13:27.120Z,64.75
2023-02-15T20:17:18.284Z,64.76
2023-02-15T20:18:49.763Z,64.81
2023-02-15T20:20:17.884Z,64.96
2023-02-15T20:21:55.156Z,65.01
2023-02-15T20:24:09.620Z,64.91
2023-02-15T20:25:54.848Z,64.90
2023-02-15T20:32:34.160Z,64.91
2023-02-15T20:34:16.362Z,64.96
2023-02-15T20:36:26.355Z,65.05
2023-02-15T20:38:29.880Z,65.21
2023-02-15T20:40:12.296Z,65.34
2023-02-15T20:41:38.414Z,65.28
2023-02-15T20:43:28.005Z,65.25
2023-02-15T20:45:59.442Z,65.37
2023-02-15T20:48:05.444Z,65.34
2023-02-15T20:54:24.373Z,65.27
2023-02-15T20:57:21.890Z,65.05
2023-02-15T20:59:41.486Z,65.19
2023-02-15T21:03:31.198Z,65.40
2023-02-15T22:00:42.418Z,65.65
2023-02-15T22:03:08.792Z,65.72
2023-02-15T22:05:17.121Z,65.76
2023-02-15T22:16:08.039Z,65.60
2023-02-15T22:17:44.824Z,65.43
2023-02-15T22:20:12.663Z,65.85
2023-02-15T22:21:47.766Z,65.71
2023-02-15T22:24:50.429Z,65.84
2023-02-15T22:26:08.919Z,66.05
2023-02-15T22:27:47.854Z,66.15
2023-02-15T22:29:23.706Z,65.78
